Hovedside
METAR-TAF:

METAR-TAF

Lufthavner :

Kramfors lufthavn

Kramfors, Sverige

breddegrad: 63-03N, lengdegrad: 017-46E, høyde over havet: 10 m

Gjeldene værobservasjon

Denne rapporten ble laget for 24 minutter siden, klokken 17:20 UTC
Vind 8 kt fra Nordvest
Temperatur 20°C
Luftfuktighet 24%
Trykk 1028 hPa
Sikt 10 km eller mer

METAR: ESNK 261720Z AUTO 32008KT 9999 NCD 20/M01 Q1028

Tid: 19:44 (17:44 UTC)


TAF: fraværende

Værobservasjoner og værvarsel for over 4000 flyplasser (METAR- og TAF-rapporter).

Tilgjengelige stasjoner er representert av de røde og gule prikkene på kartet.

Hold musepekeren over prikken for å se navnet på stasjonen.

Klikk så for å se værobservasjoner og -varsler.

For å forandre kartet kan du klikke på den grønne knappen med svart kryss for å zoome inn, på den grønne knappen med strek for å zoome ut, eller på de grønne pilene for å se tilstøtende kart.


METAR-TAF: